Lumby, Canada
Current Conditions -  °F | °C
As of 1:14 AM on Wednesday 28 Jan 2015 (Local Time) from CYLW Reporting Station
Moderate Fog Moderate Fog  
Wind Chill: 21°   Ceiling: 900
Heat Index: 28°   Visibility: 0.37mi
Dew Point: 27°   Wind: 7mph
Humidity: 93%   Direction: 10°N
Pressure: 30.21"   Gusts: NA
Location:  50.25°N, 118.97°W
Report Text: CYLW 280914Z AUTO 01006KT 3/8SM FZFG SCT001 OVC009 M02/M03 A3021 RMK ICG SLP248
Loading
Personal Weather Stations






























Interactive Weather Map New forecast layout! Learn more

10-Day Weather Forecast

Advertisements
Track Severe Weather on mobile